Pontal, Brazil
Current Conditions -  °F | °C
As of 4:00 PM on Tuesday 21 Oct 2014 (Local Time) from SBRP Reporting Station
Few Clouds Few Clouds  
Wind Chill: 90°   Ceiling: Unl
Heat Index: 90°   Visibility: 6mi
Dew Point: 57°   Wind: 9mph
Humidity: 33%   Direction: 150°SSE
Pressure: 29.91"   Gusts: NA
Location:  21.02°S, 48.04°W
Report Text: SBRP 211800Z 15008KT 9999 FEW045 32/14 Q1013
Loading
Personal Weather Stations






























Interactive Weather Map
Tropical Storm Tracking
New forecast layout! Learn more

10-Day Weather Forecast

Advertisements
Track Severe Weather on mobile